createdAt,value
2017-12-20T00:01:02.868Z,4.00
2017-12-20T00:03:36.369Z,4.00
2017-12-20T00:06:10.254Z,4.17
2017-12-20T00:08:44.121Z,4.17
2017-12-20T00:11:17.740Z,4.00
2017-12-20T00:13:51.485Z,4.00
2017-12-20T00:16:26.452Z,3.67
2017-12-20T00:19:00.525Z,5.33
2017-12-20T00:21:33.939Z,4.00
2017-12-20T00:24:13.032Z,5.00
2017-12-20T00:26:46.464Z,4.17
2017-12-20T00:29:20.064Z,3.50
2017-12-20T00:31:53.548Z,4.00
2017-12-20T00:34:28.129Z,3.67
2017-12-20T00:37:01.256Z,4.33
2017-12-20T00:39:34.445Z,3.00
2017-12-20T00:42:07.958Z,4.00
2017-12-20T00:44:44.618Z,3.83
2017-12-20T00:47:18.399Z,4.00
2017-12-20T00:49:51.975Z,4.17
2017-12-20T00:52:25.996Z,4.00
2017-12-20T00:54:59.759Z,4.00
2017-12-20T00:57:33.587Z,3.83
2017-12-20T01:00:14.076Z,4.00
2017-12-20T01:02:47.605Z,3.50
2017-12-20T01:05:21.333Z,3.83
2017-12-20T01:07:55.151Z,3.83
2017-12-20T01:10:28.876Z,4.17
2017-12-20T01:13:02.931Z,3.83
2017-12-20T01:15:36.520Z,4.00
2017-12-20T01:18:10.133Z,3.00
2017-12-20T01:20:44.328Z,4.67
2017-12-20T01:23:17.779Z,3.33
2017-12-20T01:25:51.599Z,3.33
2017-12-20T01:28:25.607Z,4.00
2017-12-20T01:30:59.281Z,4.00
2017-12-20T01:33:33.201Z,4.00
2017-12-20T01:36:06.735Z,4.67
2017-12-20T01:38:40.323Z,4.00
2017-12-20T01:41:15.541Z,3.83
2017-12-20T01:43:49.192Z,3.50
2017-12-20T01:46:23.159Z,3.33
2017-12-20T01:48:57.168Z,3.33
2017-12-20T01:51:30.700Z,3.00
2017-12-20T01:54:04.677Z,3.17
2017-12-20T01:56:38.407Z,4.00
2017-12-20T01:59:12.063Z,3.17
2017-12-20T02:01:45.719Z,3.00
2017-12-20T02:04:19.315Z,3.00
2017-12-20T02:06:52.887Z,3.33
2017-12-20T02:09:27.138Z,3.33
2017-12-20T02:12:00.983Z,4.17
2017-12-20T02:14:34.624Z,3.17
2017-12-20T02:17:08.303Z,3.00
2017-12-20T02:19:41.864Z,4.00
2017-12-20T02:22:15.458Z,3.00
2017-12-20T02:24:49.586Z,2.50
2017-12-20T02:27:23.541Z,3.00
2017-12-20T02:29:57.366Z,4.00
2017-12-20T02:32:35.216Z,3.00
2017-12-20T02:35:09.107Z,3.00
2017-12-20T02:37:42.988Z,3.17
2017-12-20T02:40:21.435Z,3.00
2017-12-20T02:42:55.005Z,3.00
2017-12-20T02:45:28.681Z,3.00
2017-12-20T02:48:02.008Z,3.00
2017-12-20T02:50:36.177Z,3.50
2017-12-20T02:53:09.869Z,4.17
2017-12-20T02:55:43.283Z,3.17
2017-12-20T02:58:16.975Z,2.83
2017-12-20T03:00:50.779Z,3.00
2017-12-20T03:03:24.507Z,2.00
2017-12-20T03:05:58.145Z,3.00
2017-12-20T03:08:31.750Z,2.00
2017-12-20T03:11:05.176Z,2.00
2017-12-20T03:13:38.639Z,2.00
2017-12-20T03:16:12.365Z,2.17
2017-12-20T03:18:46.351Z,3.00
2017-12-20T03:21:19.776Z,3.00
2017-12-20T03:23:53.368Z,2.83
2017-12-20T03:26:27.807Z,2.33
2017-12-20T03:29:01.342Z,2.50
2017-12-20T03:31:34.826Z,2.33
2017-12-20T03:34:08.412Z,2.00
2017-12-20T03:36:41.988Z,2.67
2017-12-20T03:39:15.790Z,3.00
2017-12-20T03:41:49.507Z,2.67
2017-12-20T03:44:23.216Z,2.00
2017-12-20T03:46:56.619Z,3.00
2017-12-20T03:49:30.188Z,1.67
2017-12-20T03:52:04.104Z,2.00
2017-12-20T03:54:37.606Z,2.00
2017-12-20T03:57:11.536Z,2.00
2017-12-20T03:59:45.664Z,1.83
2017-12-20T04:02:19.280Z,2.00
2017-12-20T04:04:52.798Z,2.17
2017-12-20T04:07:26.721Z,2.00
2017-12-20T04:10:00.159Z,2.67
2017-12-20T04:12:33.739Z,2.67
2017-12-20T04:15:07.736Z,2.00
2017-12-20T04:17:41.244Z,1.50
2017-12-20T04:20:14.911Z,2.00
2017-12-20T04:22:49.154Z,2.00
2017-12-20T04:25:22.653Z,2.00
2017-12-20T04:27:56.586Z,3.00
2017-12-20T04:30:30.543Z,1.67
2017-12-20T04:33:04.161Z,1.33
2017-12-20T04:35:37.760Z,1.83
2017-12-20T04:38:11.380Z,2.00
2017-12-20T04:40:44.929Z,1.67
2017-12-20T04:43:18.876Z,2.00
2017-12-20T04:45:52.372Z,1.33
2017-12-20T04:48:26.019Z,1.00
2017-12-20T04:50:59.576Z,2.83
2017-12-20T04:53:33.202Z,2.00
2017-12-20T04:56:07.111Z,2.00
2017-12-20T04:58:40.728Z,1.33
2017-12-20T05:01:14.411Z,2.17
2017-12-20T05:03:47.920Z,1.33
2017-12-20T05:06:21.500Z,2.00
2017-12-20T05:08:55.161Z,2.67
2017-12-20T05:11:28.852Z,1.67
2017-12-20T05:14:02.198Z,1.67
2017-12-20T05:16:35.614Z,2.00
2017-12-20T05:19:09.191Z,1.00
2017-12-20T05:21:42.803Z,1.83
2017-12-20T05:24:17.599Z,1.67
2017-12-20T05:26:51.157Z,1.00
2017-12-20T05:29:25.159Z,2.00
2017-12-20T05:31:58.642Z,2.17
2017-12-20T05:34:32.016Z,2.00
2017-12-20T05:37:12.146Z,1.83
2017-12-20T05:39:45.890Z,2.00
2017-12-20T05:42:19.383Z,2.00
2017-12-20T05:44:52.968Z,2.00
2017-12-20T05:47:26.820Z,2.00
2017-12-20T05:50:00.766Z,2.00
2017-12-20T05:52:34.332Z,2.00
2017-12-20T05:55:08.034Z,2.00
2017-12-20T05:57:41.620Z,2.00
2017-12-20T06:00:18.313Z,2.00
2017-12-20T06:02:52.165Z,2.00
2017-12-20T06:05:25.996Z,2.00
2017-12-20T06:07:59.631Z,2.00
2017-12-20T06:10:33.191Z,2.00
2017-12-20T06:13:06.841Z,1.00
2017-12-20T06:15:40.555Z,2.00
2017-12-20T06:18:14.341Z,2.00
2017-12-20T06:20:48.215Z,1.67
2017-12-20T06:23:21.871Z,1.00
2017-12-20T06:25:55.346Z,1.83
2017-12-20T06:28:29.075Z,1.67
2017-12-20T06:31:02.600Z,1.67
2017-12-20T06:33:36.278Z,2.00
2017-12-20T06:36:10.160Z,2.00
2017-12-20T06:38:44.778Z,1.00
2017-12-20T06:41:18.587Z,1.50
2017-12-20T06:43:53.920Z,2.00
2017-12-20T06:46:29.062Z,1.00
2017-12-20T06:49:03.371Z,1.67
2017-12-20T06:51:36.998Z,2.00
2017-12-20T06:54:11.650Z,2.00
2017-12-20T06:56:45.319Z,1.67
2017-12-20T06:59:21.679Z,1.00
2017-12-20T07:01:55.752Z,2.00
2017-12-20T07:04:29.731Z,2.00
2017-12-20T07:07:03.309Z,2.00
2017-12-20T07:09:36.878Z,1.00
2017-12-20T07:12:10.595Z,1.00
2017-12-20T07:14:44.446Z,1.67
2017-12-20T07:17:18.005Z,2.00
2017-12-20T07:19:51.823Z,2.00
2017-12-20T07:22:25.788Z,1.00
2017-12-20T07:24:59.481Z,1.17
2017-12-20T07:27:34.104Z,1.33
2017-12-20T07:30:07.411Z,1.67
2017-12-20T07:32:40.880Z,1.17
2017-12-20T07:35:14.856Z,2.00
2017-12-20T07:37:48.483Z,2.00
2017-12-20T07:40:22.049Z,1.67
2017-12-20T07:42:55.891Z,2.00
2017-12-20T07:45:29.236Z,1.17
2017-12-20T07:48:03.091Z,1.00
2017-12-20T07:50:36.559Z,1.33
2017-12-20T07:53:10.120Z,1.33
2017-12-20T07:55:43.755Z,1.00
2017-12-20T07:58:17.439Z,1.67
2017-12-20T08:00:51.258Z,1.17
2017-12-20T08:03:25.057Z,1.00
2017-12-20T08:05:58.696Z,1.17
2017-12-20T08:08:32.302Z,2.00
2017-12-20T08:11:06.290Z,1.00
2017-12-20T08:13:39.935Z,1.33
2017-12-20T08:16:13.913Z,2.00
2017-12-20T08:18:47.859Z,1.67
2017-12-20T08:21:21.543Z,1.00
2017-12-20T08:23:55.131Z,1.83
2017-12-20T08:26:29.049Z,1.50
2017-12-20T08:29:02.728Z,1.33
2017-12-20T08:31:36.346Z,2.00
2017-12-20T08:34:09.865Z,1.50
2017-12-20T08:36:43.494Z,1.83
2017-12-20T08:39:17.172Z,1.00
2017-12-20T08:41:51.087Z,1.33
2017-12-20T08:44:24.687Z,1.00
2017-12-20T08:46:59.073Z,1.83
2017-12-20T08:49:32.815Z,1.33
2017-12-20T08:52:06.375Z,1.00
2017-12-20T08:54:40.208Z,1.00
2017-12-20T08:57:13.805Z,1.83
2017-12-20T08:59:47.327Z,1.00
2017-12-20T09:02:21.335Z,1.67
2017-12-20T09:04:55.924Z,2.00
2017-12-20T09:07:29.747Z,1.00
2017-12-20T09:10:03.448Z,1.17
2017-12-20T09:12:36.819Z,1.83
2017-12-20T09:15:12.913Z,2.00
2017-12-20T09:17:46.406Z,1.67
2017-12-20T09:20:20.272Z,1.00
2017-12-20T09:22:53.787Z,1.00
2017-12-20T09:25:27.605Z,1.00
2017-12-20T09:28:01.297Z,1.00
2017-12-20T09:30:34.985Z,1.83
2017-12-20T09:33:08.708Z,1.50
2017-12-20T09:35:42.732Z,1.00
2017-12-20T09:38:16.184Z,1.67
2017-12-20T09:40:49.715Z,2.00
2017-12-20T09:43:23.290Z,1.33
2017-12-20T09:45:56.925Z,1.00
2017-12-20T09:48:30.668Z,1.00
2017-12-20T09:51:04.499Z,1.17
2017-12-20T09:53:38.147Z,1.00
2017-12-20T09:56:11.771Z,1.50
2017-12-20T09:58:45.394Z,1.67
2017-12-20T10:01:18.890Z,1.33
2017-12-20T10:03:52.497Z,2.00
2017-12-20T10:06:28.944Z,1.00
2017-12-20T10:09:02.691Z,1.50
2017-12-20T10:11:36.989Z,1.33
2017-12-20T10:14:10.697Z,1.00
2017-12-20T10:16:44.139Z,1.50
2017-12-20T10:19:17.689Z,1.00
2017-12-20T10:21:51.228Z,1.50
2017-12-20T10:24:25.016Z,1.83
2017-12-20T10:27:00.886Z,1.00
2017-12-20T10:29:34.678Z,1.00
2017-12-20T10:32:08.307Z,1.00
2017-12-20T10:34:41.904Z,1.17
2017-12-20T10:37:15.341Z,1.83
2017-12-20T10:39:49.449Z,1.50
2017-12-20T10:42:23.801Z,1.33
2017-12-20T10:44:57.460Z,1.00
2017-12-20T10:47:31.328Z,1.83
2017-12-20T10:50:04.959Z,1.17
2017-12-20T10:52:39.176Z,1.33
2017-12-20T10:55:12.751Z,1.33
2017-12-20T10:57:46.558Z,1.50
2017-12-20T11:00:20.023Z,1.67
2017-12-20T11:02:53.688Z,2.00
2017-12-20T11:05:27.757Z,1.67
2017-12-20T11:08:01.717Z,1.00
2017-12-20T11:10:35.311Z,1.00
2017-12-20T11:13:08.841Z,1.00
2017-12-20T11:15:42.940Z,2.00
2017-12-20T11:18:16.405Z,1.00
2017-12-20T11:20:50.140Z,2.00
2017-12-20T11:23:23.799Z,1.00
2017-12-20T11:25:57.496Z,1.00
2017-12-20T11:28:31.407Z,1.00
2017-12-20T11:31:05.155Z,1.00
2017-12-20T11:33:38.882Z,1.67
2017-12-20T11:36:12.588Z,1.67
2017-12-20T11:38:45.991Z,1.83
2017-12-20T11:41:20.015Z,1.67
2017-12-20T11:43:53.470Z,1.33
2017-12-20T11:46:27.200Z,1.83
2017-12-20T11:49:02.108Z,1.17
2017-12-20T11:51:36.526Z,1.00
2017-12-20T11:54:10.154Z,1.50
2017-12-20T11:56:44.334Z,2.50
2017-12-20T11:59:18.591Z,2.00
2017-12-20T12:01:52.570Z,1.00
2017-12-20T12:04:26.656Z,1.00
2017-12-20T12:07:07.299Z,1.50
2017-12-20T12:09:40.904Z,1.17
2017-12-20T12:12:14.814Z,1.00
2017-12-20T12:14:48.630Z,1.83
2017-12-20T12:17:23.471Z,2.00
2017-12-20T12:19:57.788Z,1.00
2017-12-20T12:22:32.148Z,2.00
2017-12-20T12:25:07.930Z,1.17
2017-12-20T12:27:42.880Z,1.50
2017-12-20T12:30:16.875Z,2.00
2017-12-20T12:32:53.711Z,1.00
2017-12-20T12:35:27.494Z,1.33
2017-12-20T12:38:01.951Z,1.83
2017-12-20T12:40:39.941Z,2.00
2017-12-20T12:43:17.014Z,1.50
2017-12-20T12:45:55.244Z,1.83
2017-12-20T12:48:32.579Z,1.67
2017-12-20T12:51:07.274Z,2.00
2017-12-20T12:53:41.395Z,1.83
2017-12-20T12:56:21.945Z,1.17
2017-12-20T12:58:59.069Z,1.67
2017-12-20T13:01:37.313Z,2.00
2017-12-20T13:04:15.670Z,1.00
2017-12-20T13:06:49.414Z,2.00
2017-12-20T13:09:23.977Z,2.00
2017-12-20T13:11:58.078Z,1.67
2017-12-20T13:14:33.062Z,2.00
2017-12-20T13:17:07.568Z,2.00
2017-12-20T13:19:42.494Z,2.17
2017-12-20T13:22:19.567Z,2.50
2017-12-20T13:24:55.866Z,2.00
2017-12-20T13:27:34.450Z,2.00
2017-12-20T13:30:13.671Z,1.17
2017-12-20T13:32:51.202Z,1.83
2017-12-20T13:35:29.810Z,2.00
2017-12-20T13:38:07.019Z,2.00
2017-12-20T13:40:44.334Z,2.00
2017-12-20T13:43:21.819Z,2.00
2017-12-20T13:45:59.697Z,1.50
2017-12-20T13:48:37.122Z,1.67
2017-12-20T13:51:11.083Z,2.00
2017-12-20T13:53:44.746Z,2.00
2017-12-20T13:56:18.581Z,2.00
2017-12-20T13:58:52.676Z,2.00
2017-12-20T14:04:30.993Z,1.83
2017-12-20T14:07:04.699Z,2.00
2017-12-20T14:09:38.311Z,2.50
2017-12-20T14:12:11.919Z,2.00
2017-12-20T14:14:45.449Z,2.00
2017-12-20T14:17:19.116Z,2.17
2017-12-20T14:19:52.839Z,2.00
2017-12-20T14:22:32.842Z,2.00
2017-12-20T14:25:08.010Z,2.67
2017-12-20T14:27:42.202Z,1.83
2017-12-20T14:30:18.133Z,2.50
2017-12-20T14:32:52.655Z,2.00
2017-12-20T14:35:26.713Z,2.17
2017-12-20T14:38:02.083Z,2.00
2017-12-20T14:40:37.143Z,2.00
2017-12-20T14:43:11.294Z,2.00
2017-12-20T14:45:46.572Z,1.17
2017-12-20T14:48:21.243Z,2.67
2017-12-20T14:50:56.417Z,2.00
2017-12-20T14:53:31.416Z,2.00
2017-12-20T14:56:13.147Z,2.17
2017-12-20T14:58:47.096Z,2.83
2017-12-20T15:01:25.933Z,3.00
2017-12-20T15:04:00.398Z,3.17
2017-12-20T15:06:35.880Z,3.00
2017-12-20T15:09:09.558Z,3.00
2017-12-20T15:11:44.369Z,3.17
2017-12-20T15:14:17.896Z,3.00
2017-12-20T15:16:51.351Z,3.00
2017-12-20T15:19:25.293Z,2.33
2017-12-20T15:22:05.624Z,2.83
2017-12-20T15:24:39.249Z,2.00
2017-12-20T15:27:12.796Z,2.00
2017-12-20T15:29:46.450Z,2.00
2017-12-20T15:32:20.189Z,2.17
2017-12-20T15:34:55.087Z,2.33
2017-12-20T15:37:29.208Z,2.00
2017-12-20T15:40:02.849Z,2.33
2017-12-20T15:42:36.600Z,2.17
2017-12-20T15:45:12.848Z,2.00
2017-12-20T15:47:46.378Z,2.67
2017-12-20T15:50:19.880Z,2.00
2017-12-20T15:52:53.375Z,2.33
2017-12-20T15:55:27.647Z,2.33
2017-12-20T15:58:02.146Z,2.71
2017-12-20T16:00:35.801Z,2.00
2017-12-20T16:03:10.408Z,2.83
2017-12-20T16:05:44.010Z,1.83
2017-12-20T16:08:17.527Z,2.00
2017-12-20T16:10:51.115Z,2.00
2017-12-20T16:13:25.104Z,3.00
2017-12-20T16:15:58.741Z,3.00
2017-12-20T16:18:32.376Z,2.67
2017-12-20T16:21:05.814Z,2.83
2017-12-20T16:23:39.435Z,2.00
2017-12-20T16:26:13.287Z,2.00
2017-12-20T16:28:46.825Z,2.00
2017-12-20T16:31:20.382Z,2.00
2017-12-20T16:33:54.023Z,3.00
2017-12-20T16:36:28.125Z,2.00
2017-12-20T16:39:01.656Z,2.50
2017-12-20T16:41:35.423Z,2.00
2017-12-20T16:44:09.043Z,2.00
2017-12-20T16:46:42.615Z,2.67
2017-12-20T16:49:16.412Z,3.00
2017-12-20T16:51:50.325Z,2.17
2017-12-20T16:54:24.577Z,2.50
2017-12-20T16:56:58.549Z,2.67
2017-12-20T16:59:31.863Z,2.83
2017-12-20T17:02:05.465Z,2.00
2017-12-20T17:04:39.097Z,2.00
2017-12-20T17:07:12.755Z,2.00
2017-12-20T17:09:46.292Z,2.00
2017-12-20T17:12:20.441Z,1.50
2017-12-20T17:14:54.555Z,2.83
2017-12-20T17:17:28.140Z,3.00
2017-12-20T17:20:02.262Z,2.00
2017-12-20T17:22:35.852Z,2.00
2017-12-20T17:25:09.487Z,2.33
2017-12-20T17:27:43.151Z,1.33
2017-12-20T17:30:16.831Z,2.17
2017-12-20T17:32:50.753Z,2.33
2017-12-20T17:35:24.469Z,1.50
2017-12-20T17:37:57.980Z,2.00
2017-12-20T17:40:31.629Z,2.33
2017-12-20T17:43:05.389Z,2.00
2017-12-20T17:45:39.417Z,2.67
2017-12-20T17:48:13.019Z,1.83
2017-12-20T17:50:46.607Z,2.00
2017-12-20T17:53:21.025Z,1.43
2017-12-20T17:55:54.423Z,2.17
2017-12-20T17:58:27.909Z,1.83
2017-12-20T18:01:01.420Z,2.00
2017-12-20T18:03:34.907Z,2.00
2017-12-20T18:06:09.069Z,2.00
2017-12-20T18:08:45.173Z,2.17
2017-12-20T18:11:18.869Z,2.17
2017-12-20T18:13:52.340Z,2.00
2017-12-20T18:16:26.805Z,1.83
2017-12-20T18:19:00.357Z,1.67
2017-12-20T18:21:34.016Z,2.00
2017-12-20T18:24:07.780Z,2.00
2017-12-20T18:26:41.216Z,1.67
2017-12-20T18:29:14.875Z,2.50
2017-12-20T18:31:48.536Z,2.50
2017-12-20T18:34:21.943Z,2.00
2017-12-20T18:36:55.489Z,2.33
2017-12-20T18:39:29.237Z,2.00
2017-12-20T18:42:03.338Z,2.17
2017-12-20T18:44:36.899Z,2.83
2017-12-20T18:47:10.464Z,3.00
2017-12-20T18:49:44.143Z,1.83
2017-12-20T18:52:17.687Z,2.17
2017-12-20T18:54:51.539Z,2.00
2017-12-20T18:57:25.169Z,2.00
2017-12-20T18:59:58.744Z,1.33
2017-12-20T19:02:32.511Z,2.83
2017-12-20T19:05:06.154Z,2.50
2017-12-20T19:07:40.043Z,2.00
2017-12-20T19:10:13.588Z,3.00
2017-12-20T19:12:47.193Z,3.50
2017-12-20T19:15:20.635Z,2.00
2017-12-20T19:17:54.175Z,2.67
2017-12-20T19:20:28.062Z,2.33
2017-12-20T19:23:01.953Z,1.83
2017-12-20T19:25:35.685Z,3.00
2017-12-20T19:28:09.828Z,2.00
2017-12-20T19:30:43.391Z,2.00
2017-12-20T19:33:16.932Z,1.17
2017-12-20T19:35:50.599Z,1.50
2017-12-20T19:38:24.419Z,2.67
2017-12-20T19:40:57.976Z,2.00
2017-12-20T19:43:31.414Z,2.00
2017-12-20T19:46:05.023Z,2.00
2017-12-20T19:48:38.780Z,2.17
2017-12-20T19:51:14.099Z,2.00
2017-12-20T19:53:47.678Z,2.00
2017-12-20T19:56:21.292Z,2.00
2017-12-20T19:58:54.849Z,2.00
2017-12-20T20:01:28.585Z,2.00
2017-12-20T20:04:02.460Z,3.00
2017-12-20T20:06:36.214Z,2.00
2017-12-20T20:09:09.612Z,2.00
2017-12-20T20:11:43.205Z,2.00
2017-12-20T20:14:16.665Z,2.33
2017-12-20T20:16:50.294Z,2.00
2017-12-20T20:19:24.310Z,2.00
2017-12-20T20:21:57.753Z,2.67
2017-12-20T20:24:31.475Z,2.00
2017-12-20T20:27:04.999Z,2.17
2017-12-20T20:29:38.602Z,2.33
2017-12-20T20:32:12.706Z,3.00
2017-12-20T20:34:46.609Z,2.00
2017-12-20T20:37:20.087Z,2.00
2017-12-20T20:39:53.868Z,2.00
2017-12-20T20:42:27.585Z,2.33
2017-12-20T20:45:01.247Z,2.00
2017-12-20T20:47:36.214Z,2.00
2017-12-20T20:50:09.765Z,2.50
2017-12-20T20:52:43.371Z,2.83
2017-12-20T20:55:17.199Z,2.50
2017-12-20T20:57:51.054Z,2.00
2017-12-20T21:00:25.109Z,2.67
2017-12-20T21:02:58.718Z,2.00
2017-12-20T21:05:32.267Z,2.33
2017-12-20T21:08:06.195Z,2.00
2017-12-20T21:10:39.900Z,1.83
2017-12-20T21:13:13.816Z,2.50
2017-12-20T21:15:47.663Z,2.83
2017-12-20T21:18:21.343Z,2.00
2017-12-20T21:20:54.875Z,2.00
2017-12-20T21:23:28.644Z,2.17
2017-12-20T21:26:02.286Z,2.83
2017-12-20T21:28:35.977Z,2.67
2017-12-20T21:31:09.914Z,2.50
2017-12-20T21:33:43.379Z,3.00
2017-12-20T21:36:16.991Z,2.83
2017-12-20T21:38:50.689Z,2.00
2017-12-20T21:41:24.456Z,2.33
2017-12-20T21:43:58.468Z,2.17
2017-12-20T21:46:31.936Z,2.17
2017-12-20T21:49:05.559Z,2.83
2017-12-20T21:51:39.034Z,1.83
2017-12-20T21:54:12.748Z,1.83
2017-12-20T21:56:46.778Z,2.83
2017-12-20T21:59:20.313Z,3.00
2017-12-20T22:01:53.722Z,2.00
2017-12-20T22:04:27.889Z,3.00
2017-12-20T22:07:01.569Z,2.50
2017-12-20T22:09:35.625Z,2.00
2017-12-20T22:12:09.151Z,1.83
2017-12-20T22:14:42.795Z,2.50
2017-12-20T22:17:16.367Z,2.00
2017-12-20T22:19:49.913Z,2.00
2017-12-20T22:22:23.566Z,3.00
2017-12-20T22:24:57.722Z,1.67
2017-12-20T22:27:31.745Z,2.67
2017-12-20T22:30:06.542Z,2.00
2017-12-20T22:32:40.179Z,2.00
2017-12-20T22:35:13.822Z,2.00
2017-12-20T22:37:47.446Z,2.67
2017-12-20T22:40:21.463Z,2.00
2017-12-20T22:42:55.032Z,2.50
2017-12-20T22:45:28.603Z,2.83
2017-12-20T22:48:02.371Z,2.00
2017-12-20T22:50:36.090Z,2.00
2017-12-20T22:53:10.134Z,2.00
2017-12-20T22:55:43.692Z,2.50
2017-12-20T22:58:17.265Z,2.67
2017-12-20T23:00:51.232Z,3.00
2017-12-20T23:03:24.916Z,2.17
2017-12-20T23:05:58.311Z,2.67
2017-12-20T23:08:31.872Z,3.00
2017-12-20T23:11:05.526Z,2.83
2017-12-20T23:13:39.699Z,2.17
2017-12-20T23:16:13.226Z,2.67
2017-12-20T23:18:46.752Z,2.00
2017-12-20T23:21:20.128Z,3.00
2017-12-20T23:23:53.660Z,2.33
2017-12-20T23:26:30.613Z,2.00
2017-12-20T23:29:04.298Z,2.17
2017-12-20T23:31:37.848Z,2.50
2017-12-20T23:34:11.924Z,2.33
2017-12-20T23:36:45.746Z,3.00
2017-12-20T23:39:19.287Z,2.67
2017-12-20T23:41:52.895Z,2.83
2017-12-20T23:44:26.537Z,3.00
2017-12-20T23:47:00.239Z,2.17
2017-12-20T23:49:33.723Z,2.00
2017-12-20T23:52:07.648Z,2.33
2017-12-20T23:54:41.247Z,2.00
2017-12-20T23:57:14.707Z,2.33
2017-12-20T23:59:48.666Z,2.00
